createdAt,value
2018-03-29T00:00:10.578Z,0.00
2018-03-29T00:01:08.612Z,0.00
2018-03-29T00:02:06.683Z,0.00
2018-03-29T00:03:05.802Z,0.00
2018-03-29T00:04:05.783Z,0.00
2018-03-29T00:05:05.752Z,0.00
2018-03-29T00:06:05.864Z,0.00
2018-03-29T00:07:05.727Z,0.00
2018-03-29T00:08:05.847Z,0.00
2018-03-29T00:09:07.611Z,0.00
2018-03-29T00:10:05.817Z,0.00
2018-03-29T00:11:05.701Z,0.00
2018-03-29T00:12:05.657Z,0.00
2018-03-29T00:13:05.636Z,0.00
2018-03-29T00:14:05.617Z,0.00
2018-03-29T00:15:05.647Z,0.00
2018-03-29T00:16:05.604Z,0.00
2018-03-29T00:17:05.621Z,0.00
2018-03-29T00:18:05.514Z,0.00
2018-03-29T00:19:05.773Z,0.00
2018-03-29T00:20:05.495Z,0.00
2018-03-29T00:21:06.470Z,0.00
2018-03-29T00:22:05.548Z,0.00
2018-03-29T00:23:05.420Z,0.00
2018-03-29T00:24:05.432Z,0.00
2018-03-29T00:25:06.228Z,0.00
2018-03-29T00:26:06.094Z,0.00
2018-03-29T00:27:05.412Z,0.00
2018-03-29T00:28:05.367Z,0.00
2018-03-29T00:29:05.309Z,0.00
2018-03-29T00:30:05.366Z,0.00
2018-03-29T00:31:05.356Z,0.00
2018-03-29T00:32:05.306Z,0.00
2018-03-29T00:33:05.478Z,0.00
2018-03-29T00:34:05.344Z,0.00
2018-03-29T00:35:05.221Z,0.00
2018-03-29T00:36:05.204Z,0.00
2018-03-29T00:37:06.085Z,0.00
2018-03-29T00:38:05.154Z,0.00
2018-03-29T00:39:05.294Z,0.00
2018-03-29T00:40:06.085Z,0.00
2018-03-29T00:41:05.097Z,0.00
2018-03-29T00:42:05.095Z,0.00
2018-03-29T00:43:05.065Z,0.00
2018-03-29T00:44:05.063Z,0.00
2018-03-29T00:45:05.097Z,0.00
2018-03-29T00:46:05.025Z,0.00
2018-03-29T00:47:05.019Z,0.00
2018-03-29T00:48:04.993Z,0.00
2018-03-29T00:49:04.999Z,0.00
2018-03-29T00:50:04.954Z,0.00
2018-03-29T00:51:05.006Z,0.00
2018-03-29T00:52:05.603Z,0.00
2018-03-29T00:53:04.909Z,0.00
2018-03-29T00:54:05.689Z,0.00
2018-03-29T00:55:04.864Z,0.00
2018-03-29T00:56:04.845Z,0.00
2018-03-29T00:57:04.869Z,0.00
2018-03-29T00:58:04.901Z,0.00
2018-03-29T00:59:06.585Z,0.00
2018-03-29T01:00:04.768Z,0.00
2018-03-29T01:01:04.797Z,0.00
2018-03-29T01:02:05.569Z,0.00
2018-03-29T01:03:04.882Z,0.00
2018-03-29T01:04:04.714Z,0.00
2018-03-29T01:05:04.723Z,0.00
2018-03-29T01:06:04.646Z,0.00
2018-03-29T01:07:04.875Z,0.00
2018-03-29T01:08:04.638Z,0.00
2018-03-29T01:09:04.608Z,0.00
2018-03-29T01:10:04.620Z,0.00
2018-03-29T01:11:04.853Z,0.00
2018-03-29T01:12:04.549Z,0.00
2018-03-29T01:13:04.584Z,0.00
2018-03-29T01:14:04.536Z,0.00
2018-03-29T01:15:04.534Z,0.00
2018-03-29T01:16:04.806Z,0.00
2018-03-29T01:17:04.524Z,0.00
2018-03-29T01:18:04.510Z,0.00
2018-03-29T01:19:04.434Z,0.00
2018-03-29T01:20:04.413Z,0.00
2018-03-29T01:21:04.392Z,0.00
2018-03-29T01:22:04.373Z,0.00
2018-03-29T01:23:04.349Z,0.00
2018-03-29T01:24:05.098Z,0.00
2018-03-29T01:25:04.328Z,0.00
2018-03-29T01:26:04.303Z,0.00
2018-03-29T01:27:06.099Z,0.00
2018-03-29T01:28:04.309Z,0.00
2018-03-29T01:29:04.295Z,0.00
2018-03-29T01:30:04.243Z,0.00
2018-03-29T01:31:04.237Z,0.00
2018-03-29T01:32:04.548Z,0.00
2018-03-29T01:33:04.166Z,0.00
2018-03-29T01:34:04.156Z,0.00
2018-03-29T01:35:04.147Z,0.00
2018-03-29T01:36:04.343Z,0.00
2018-03-29T01:37:04.126Z,0.00
2018-03-29T01:38:04.122Z,0.00
2018-03-29T01:39:04.733Z,0.00
2018-03-29T01:40:04.084Z,0.00
2018-03-29T01:41:04.089Z,0.00
2018-03-29T01:42:04.019Z,0.00
2018-03-29T01:43:04.239Z,0.00
2018-03-29T01:44:04.030Z,0.00
2018-03-29T01:45:04.605Z,0.00
2018-03-29T01:46:04.585Z,0.00
2018-03-29T01:47:03.932Z,0.00
2018-03-29T01:48:03.926Z,0.00
2018-03-29T01:49:04.049Z,0.00
2018-03-29T01:50:03.984Z,0.00
2018-03-29T01:51:04.617Z,0.00
2018-03-29T01:52:03.825Z,0.00
2018-03-29T01:53:04.317Z,0.00
2018-03-29T01:54:03.943Z,0.00
2018-03-29T01:55:05.320Z,0.00
2018-03-29T01:56:04.996Z,0.00
2018-03-29T01:57:03.759Z,0.00
2018-03-29T01:58:03.735Z,0.00
2018-03-29T01:59:03.767Z,0.00
2018-03-29T02:00:03.739Z,0.00
2018-03-29T02:01:03.687Z,0.00
2018-03-29T02:02:03.668Z,0.00
2018-03-29T02:03:03.634Z,0.00
2018-03-29T02:04:03.621Z,0.00
2018-03-29T02:05:03.629Z,0.00
2018-03-29T02:06:03.665Z,0.00
2018-03-29T02:07:03.631Z,0.00
2018-03-29T02:08:03.568Z,0.00
2018-03-29T02:09:03.561Z,0.00
2018-03-29T02:10:04.112Z,0.00
2018-03-29T02:11:03.497Z,0.00
2018-03-29T02:12:03.529Z,0.00
2018-03-29T02:13:03.463Z,0.00
2018-03-29T02:14:03.505Z,0.00
2018-03-29T02:15:03.857Z,0.00
2018-03-29T02:16:03.456Z,0.00
2018-03-29T02:17:03.392Z,0.00
2018-03-29T02:18:03.393Z,0.00
2018-03-29T02:19:03.345Z,0.00
2018-03-29T02:20:03.343Z,0.00
2018-03-29T02:21:03.353Z,0.00
2018-03-29T02:22:03.297Z,0.00
2018-03-29T02:23:03.272Z,0.00
2018-03-29T02:24:03.256Z,0.00
2018-03-29T02:25:03.387Z,0.00
2018-03-29T02:26:03.273Z,0.00
2018-03-29T02:27:03.217Z,0.00
2018-03-29T02:28:03.447Z,0.00
2018-03-29T02:29:03.190Z,0.00
2018-03-29T02:30:04.106Z,0.00
2018-03-29T02:31:03.287Z,0.00
2018-03-29T02:32:03.174Z,0.00
2018-03-29T02:33:03.148Z,0.00
2018-03-29T02:34:03.074Z,0.00
2018-03-29T02:35:03.064Z,0.00
2018-03-29T02:36:03.055Z,0.00
2018-03-29T02:37:03.175Z,0.00
2018-03-29T02:38:03.018Z,0.00
2018-03-29T02:39:03.184Z,0.00
2018-03-29T02:40:03.263Z,0.00
2018-03-29T02:41:02.957Z,0.00
2018-03-29T02:42:02.932Z,0.00
2018-03-29T02:43:02.931Z,0.00
2018-03-29T02:44:03.602Z,0.00
2018-03-29T02:45:03.007Z,0.00
2018-03-29T02:46:02.876Z,0.00
2018-03-29T02:47:02.858Z,0.00
2018-03-29T02:48:02.857Z,0.00
2018-03-29T02:49:02.846Z,0.00
2018-03-29T02:50:02.857Z,0.00
2018-03-29T02:51:02.849Z,0.00
2018-03-29T02:52:02.789Z,0.00
2018-03-29T02:53:02.737Z,0.00
2018-03-29T02:54:02.732Z,0.00
2018-03-29T02:55:02.746Z,0.00
2018-03-29T02:56:02.698Z,0.00
2018-03-29T02:57:02.710Z,0.00
2018-03-29T02:58:02.655Z,0.00
2018-03-29T02:59:02.637Z,0.00
2018-03-29T03:00:02.848Z,0.00
2018-03-29T03:01:02.633Z,0.00
2018-03-29T03:02:02.593Z,0.00
2018-03-29T03:03:02.593Z,0.00
2018-03-29T03:04:03.148Z,0.00
2018-03-29T03:05:02.752Z,0.00
2018-03-29T03:06:02.585Z,0.00
2018-03-29T03:07:03.344Z,0.00
2018-03-29T03:08:02.503Z,0.00
2018-03-29T03:09:02.469Z,0.00
2018-03-29T03:10:02.465Z,0.00
2018-03-29T03:11:02.446Z,0.00
2018-03-29T03:12:03.154Z,0.00
2018-03-29T03:13:02.383Z,0.00
2018-03-29T03:14:02.386Z,0.00
2018-03-29T03:15:02.451Z,0.00
2018-03-29T03:16:02.367Z,0.00
2018-03-29T03:17:02.316Z,0.00
2018-03-29T03:18:02.379Z,0.00
2018-03-29T03:19:03.203Z,0.00
2018-03-29T03:20:02.512Z,0.00
2018-03-29T03:21:02.295Z,0.00
2018-03-29T03:22:02.287Z,0.00
2018-03-29T03:23:02.260Z,0.00
2018-03-29T03:24:02.208Z,0.00
2018-03-29T03:25:02.201Z,0.00
2018-03-29T03:26:02.191Z,0.00
2018-03-29T03:27:03.158Z,0.00
2018-03-29T03:28:02.621Z,0.00
2018-03-29T03:29:02.098Z,0.00
2018-03-29T03:30:02.110Z,0.00
2018-03-29T03:31:02.119Z,0.00
2018-03-29T03:32:02.074Z,0.00
2018-03-29T03:33:02.153Z,0.00
2018-03-29T03:34:02.022Z,0.00
2018-03-29T03:35:02.042Z,0.00
2018-03-29T03:36:02.000Z,0.00
2018-03-29T03:37:02.093Z,0.00
2018-03-29T03:38:01.958Z,0.00
2018-03-29T03:39:01.969Z,0.00
2018-03-29T03:40:01.963Z,0.00
2018-03-29T03:41:01.914Z,0.00
2018-03-29T03:42:01.992Z,0.00
2018-03-29T03:43:01.857Z,0.00
2018-03-29T03:44:01.874Z,0.00
2018-03-29T03:45:01.931Z,0.00
2018-03-29T03:46:01.808Z,0.00
2018-03-29T03:47:01.785Z,0.00
2018-03-29T03:48:01.775Z,0.00
2018-03-29T03:49:01.798Z,0.00
2018-03-29T03:50:02.727Z,0.00
2018-03-29T03:51:01.712Z,0.00
2018-03-29T03:52:01.727Z,0.00
2018-03-29T03:53:01.681Z,0.00
2018-03-29T03:54:01.827Z,0.00
2018-03-29T03:55:01.673Z,0.00
2018-03-29T03:56:01.932Z,0.00
2018-03-29T03:57:01.966Z,0.00
2018-03-29T03:58:01.604Z,0.00
2018-03-29T03:59:01.603Z,0.00
2018-03-29T04:00:01.604Z,0.00
2018-03-29T04:01:01.553Z,0.00
2018-03-29T04:02:01.580Z,0.00
2018-03-29T04:03:01.511Z,0.00
2018-03-29T04:04:01.489Z,0.00
2018-03-29T04:05:01.545Z,0.00
2018-03-29T04:06:01.521Z,0.00
2018-03-29T04:07:01.472Z,0.00
2018-03-29T04:08:01.410Z,0.00
2018-03-29T04:09:01.429Z,0.00
2018-03-29T04:10:01.414Z,0.00
2018-03-29T04:11:01.365Z,0.00
2018-03-29T04:12:02.129Z,0.00
2018-03-29T04:13:01.361Z,0.00
2018-03-29T04:14:01.429Z,0.00
2018-03-29T04:15:01.298Z,0.00
2018-03-29T04:16:01.292Z,0.00
2018-03-29T04:17:01.304Z,0.00
2018-03-29T04:18:02.286Z,0.00
2018-03-29T04:19:01.270Z,0.00
2018-03-29T04:20:01.221Z,0.00
2018-03-29T04:21:06.168Z,0.00
2018-03-29T04:22:01.209Z,0.00
2018-03-29T04:23:01.198Z,0.00
2018-03-29T04:24:01.143Z,0.00
2018-03-29T04:25:01.180Z,0.00
2018-03-29T04:26:01.099Z,0.00
2018-03-29T04:27:01.138Z,0.00
2018-03-29T04:28:01.094Z,0.00
2018-03-29T04:29:01.063Z,0.00
2018-03-29T04:30:01.598Z,0.00
2018-03-29T04:31:01.390Z,0.00
2018-03-29T04:32:00.988Z,0.00
2018-03-29T04:33:01.003Z,0.00
2018-03-29T04:34:06.132Z,0.00
2018-03-29T04:35:00.936Z,0.00
2018-03-29T04:36:00.932Z,0.00
2018-03-29T04:37:00.898Z,0.00
2018-03-29T04:38:00.889Z,0.00
2018-03-29T04:39:00.851Z,0.00
2018-03-29T04:40:00.906Z,0.00
2018-03-29T04:41:00.836Z,0.00
2018-03-29T04:42:00.825Z,0.00
2018-03-29T04:43:00.802Z,0.00
2018-03-29T04:44:00.778Z,0.00
2018-03-29T04:45:00.790Z,0.00
2018-03-29T04:46:00.764Z,0.00
2018-03-29T04:47:00.738Z,0.00
2018-03-29T04:48:00.714Z,0.00
2018-03-29T04:49:00.695Z,0.00
2018-03-29T04:50:00.712Z,0.00
2018-03-29T04:51:00.656Z,0.00
2018-03-29T04:52:00.659Z,0.00
2018-03-29T04:53:00.619Z,0.00
2018-03-29T04:54:00.596Z,0.00
2018-03-29T04:55:00.574Z,0.00
2018-03-29T04:56:01.659Z,0.00
2018-03-29T04:57:00.561Z,0.00
2018-03-29T04:58:00.556Z,0.00
2018-03-29T04:59:00.535Z,0.00
2018-03-29T05:00:00.488Z,0.00
2018-03-29T05:01:00.477Z,0.00
2018-03-29T05:02:00.538Z,0.00
2018-03-29T05:03:00.436Z,0.00
2018-03-29T05:04:00.428Z,0.00
2018-03-29T05:05:00.395Z,0.00
2018-03-29T05:06:00.386Z,0.00
2018-03-29T05:07:00.382Z,0.00
2018-03-29T05:08:00.382Z,0.00
2018-03-29T05:09:00.395Z,0.00
2018-03-29T05:10:00.314Z,0.00
2018-03-29T05:11:00.296Z,0.00
2018-03-29T05:12:00.282Z,0.00
2018-03-29T05:13:00.256Z,0.00
2018-03-29T05:14:00.229Z,0.00
2018-03-29T05:15:00.248Z,0.00
2018-03-29T05:16:00.228Z,0.00
2018-03-29T05:17:00.188Z,0.00
2018-03-29T05:18:00.177Z,5.63
2018-03-29T05:19:00.148Z,5.63
2018-03-29T05:20:00.161Z,5.63
2018-03-29T05:21:00.127Z,5.63
2018-03-29T05:22:00.124Z,5.63
2018-03-29T05:23:00.077Z,5.63
2018-03-29T05:24:00.056Z,5.63
2018-03-29T05:25:00.050Z,5.63
2018-03-29T05:26:00.101Z,5.63
2018-03-29T05:27:00.006Z,5.63
2018-03-29T05:27:59.998Z,5.63
2018-03-29T05:28:59.987Z,5.63
2018-03-29T05:29:59.967Z,5.63
2018-03-29T05:30:59.925Z,5.63
2018-03-29T05:31:59.974Z,5.63
2018-03-29T05:32:59.922Z,5.63
2018-03-29T05:33:59.887Z,11.25
2018-03-29T05:34:59.868Z,11.25
2018-03-29T05:35:59.847Z,11.25
2018-03-29T05:36:59.843Z,16.88
2018-03-29T05:38:00.622Z,16.88
2018-03-29T05:38:59.799Z,22.50
2018-03-29T05:39:59.779Z,22.50
2018-03-29T05:40:59.754Z,22.50
2018-03-29T05:42:00.101Z,28.13
2018-03-29T05:43:00.627Z,33.75
2018-03-29T05:43:59.722Z,33.75
2018-03-29T05:44:59.711Z,33.75
2018-03-29T05:45:59.682Z,33.75
2018-03-29T05:46:59.707Z,33.75
2018-03-29T05:47:59.670Z,39.38
2018-03-29T05:48:59.632Z,39.38
2018-03-29T05:49:59.611Z,39.38
2018-03-29T05:50:59.602Z,39.38
2018-03-29T05:51:59.587Z,39.38
2018-03-29T05:52:59.616Z,39.38
2018-03-29T05:53:59.527Z,39.38
2018-03-29T05:54:59.507Z,39.38
2018-03-29T05:55:59.504Z,39.38
2018-03-29T05:56:59.500Z,45.00
2018-03-29T05:57:59.660Z,39.38
2018-03-29T05:59:00.119Z,45.00
2018-03-29T05:59:59.434Z,45.00
2018-03-29T06:00:59.413Z,45.00
2018-03-29T06:01:59.429Z,45.00
2018-03-29T06:02:59.369Z,50.63
2018-03-29T06:03:59.661Z,50.63
2018-03-29T06:04:59.352Z,50.63
2018-03-29T06:05:59.335Z,50.63
2018-03-29T06:06:59.297Z,56.25
2018-03-29T06:07:59.300Z,50.63
2018-03-29T06:08:59.271Z,50.63
2018-03-29T06:09:59.277Z,45.00
2018-03-29T06:10:59.250Z,45.00
2018-03-29T06:11:59.242Z,56.25
2018-03-29T06:12:59.877Z,56.25
2018-03-29T06:14:00.371Z,56.25
2018-03-29T06:15:00.385Z,56.25
2018-03-29T06:16:00.797Z,61.88
2018-03-29T06:17:00.941Z,61.88
2018-03-29T06:17:59.860Z,67.50
2018-03-29T06:19:01.407Z,73.13
2018-03-29T06:20:01.321Z,73.13
2018-03-29T06:21:00.373Z,73.13
2018-03-29T06:21:59.853Z,73.13
2018-03-29T06:22:59.813Z,73.13
2018-03-29T06:23:59.132Z,78.75
2018-03-29T06:24:59.106Z,78.75
2018-03-29T06:25:59.014Z,73.13
2018-03-29T06:26:59.098Z,73.13
2018-03-29T06:27:59.008Z,78.75
2018-03-29T06:28:58.938Z,73.13
2018-03-29T06:29:59.641Z,84.38
2018-03-29T06:30:59.609Z,84.38
2018-03-29T06:31:59.185Z,84.38
2018-03-29T06:32:59.040Z,95.63
2018-03-29T06:34:00.023Z,78.75
2018-03-29T06:34:58.889Z,73.13
2018-03-29T06:35:59.014Z,67.50
2018-03-29T06:36:59.062Z,90.00
2018-03-29T06:37:59.093Z,95.63
2018-03-29T06:39:03.804Z,90.00
2018-03-29T06:39:58.784Z,90.00
2018-03-29T06:40:58.711Z,95.63
2018-03-29T06:41:58.770Z,118.13
2018-03-29T06:42:59.357Z,118.13
2018-03-29T06:43:58.697Z,106.88
2018-03-29T06:44:59.634Z,112.50
2018-03-29T06:45:59.121Z,101.25
2018-03-29T06:46:58.674Z,95.63
2018-03-29T06:47:58.613Z,84.38
2018-03-29T06:48:58.727Z,95.63
2018-03-29T06:49:58.579Z,101.25
2018-03-29T06:50:58.560Z,118.13
2018-03-29T06:51:58.522Z,135.00
2018-03-29T06:52:58.521Z,90.00
2018-03-29T06:53:58.485Z,73.13
2018-03-29T06:54:58.764Z,78.75
2018-03-29T06:55:58.483Z,78.75
2018-03-29T06:56:58.458Z,61.88
2018-03-29T06:57:58.468Z,45.00
2018-03-29T06:58:58.466Z,45.00
2018-03-29T06:59:58.426Z,39.38
2018-03-29T07:00:58.500Z,39.38
2018-03-29T07:01:58.371Z,28.13
2018-03-29T07:02:58.341Z,28.13
2018-03-29T07:03:58.327Z,33.75
2018-03-29T07:04:58.304Z,28.13
2018-03-29T07:05:59.351Z,22.50
2018-03-29T07:06:58.284Z,28.13
2018-03-29T07:07:58.260Z,28.13
2018-03-29T07:08:58.247Z,33.75
2018-03-29T07:09:58.210Z,39.38
2018-03-29T07:10:58.244Z,33.75
2018-03-29T07:11:58.175Z,28.13
2018-03-29T07:12:58.173Z,22.50
2018-03-29T07:13:58.166Z,33.75
2018-03-29T07:14:58.229Z,50.63
2018-03-29T07:15:58.110Z,67.50
2018-03-29T07:16:58.098Z,78.75
2018-03-29T07:17:58.075Z,73.13
2018-03-29T07:18:58.073Z,78.75
2018-03-29T07:19:58.057Z,73.13
2018-03-29T07:20:58.143Z,84.38
2018-03-29T07:21:58.008Z,101.25
2018-03-29T07:22:57.998Z,106.88
2018-03-29T07:23:57.984Z,101.25
2018-03-29T07:24:57.958Z,90.00
2018-03-29T07:25:57.939Z,95.63
2018-03-29T07:26:57.967Z,106.88
2018-03-29T07:27:57.925Z,123.75
2018-03-29T07:28:57.940Z,163.13
2018-03-29T07:29:57.861Z,163.13
2018-03-29T07:30:57.874Z,140.63
2018-03-29T07:31:57.838Z,168.75
2018-03-29T07:32:58.150Z,140.63
2018-03-29T07:33:57.805Z,157.50
2018-03-29T07:34:57.803Z,180.00
2018-03-29T07:35:59.767Z,213.75
2018-03-29T07:36:57.765Z,208.13
2018-03-29T07:37:57.722Z,208.13
2018-03-29T07:38:57.766Z,213.75
2018-03-29T07:39:57.684Z,202.50
2018-03-29T07:40:57.680Z,196.88
2018-03-29T07:41:57.652Z,196.88
2018-03-29T07:42:57.769Z,202.50
2018-03-29T07:43:57.803Z,247.50
2018-03-29T07:44:57.624Z,286.88
2018-03-29T07:45:57.606Z,253.13
2018-03-29T07:46:57.572Z,213.75
2018-03-29T07:47:57.846Z,168.75
2018-03-29T07:48:57.547Z,157.50
2018-03-29T07:49:57.575Z,129.38
2018-03-29T07:50:57.569Z,123.75
2018-03-29T07:51:57.506Z,95.63
2018-03-29T07:52:57.486Z,112.50
2018-03-29T07:53:57.458Z,106.88
2018-03-29T07:54:58.116Z,101.25
2018-03-29T07:55:57.443Z,90.00
2018-03-29T07:56:58.180Z,95.63
2018-03-29T07:57:58.126Z,101.25
2018-03-29T07:58:57.380Z,101.25
2018-03-29T08:00:18.510Z,112.50
2018-03-29T08:00:57.390Z,123.75
2018-03-29T08:01:58.179Z,157.50
2018-03-29T08:02:57.305Z,168.75
2018-03-29T08:03:57.997Z,168.75
2018-03-29T08:04:57.276Z,225.00
2018-03-29T08:05:57.337Z,236.25
2018-03-29T08:06:57.263Z,236.25
2018-03-29T08:07:57.244Z,275.63
2018-03-29T08:08:57.224Z,264.38
2018-03-29T08:09:57.210Z,253.13
2018-03-29T08:10:58.204Z,230.63
2018-03-29T08:11:57.250Z,202.50
2018-03-29T08:12:57.147Z,202.50
2018-03-29T08:13:59.217Z,168.75
2018-03-29T08:14:57.115Z,157.50
2018-03-29T08:15:57.094Z,157.50
2018-03-29T08:16:57.101Z,174.38
2018-03-29T08:17:57.130Z,140.63
2018-03-29T08:18:57.054Z,123.75
2018-03-29T08:19:58.146Z,123.75
2018-03-29T08:20:57.061Z,129.38
2018-03-29T08:21:57.032Z,123.75
2018-03-29T08:22:56.995Z,146.25
2018-03-29T08:23:57.149Z,112.50
2018-03-29T08:24:56.955Z,84.38
2018-03-29T08:25:56.970Z,123.75
2018-03-29T08:26:56.912Z,106.88
2018-03-29T08:27:56.968Z,140.63
2018-03-29T08:28:56.903Z,129.38
2018-03-29T08:29:56.964Z,135.00
2018-03-29T08:30:57.308Z,123.75
2018-03-29T08:31:56.833Z,101.25
2018-03-29T08:32:57.023Z,112.50
2018-03-29T08:33:56.822Z,135.00
2018-03-29T08:34:56.868Z,157.50
2018-03-29T08:35:56.786Z,163.13
2018-03-29T08:36:56.751Z,112.50
2018-03-29T08:37:56.767Z,112.50
2018-03-29T08:38:56.729Z,101.25
2018-03-29T08:39:56.739Z,129.38
2018-03-29T08:40:56.803Z,118.13
2018-03-29T08:41:56.731Z,118.13
2018-03-29T08:42:56.688Z,106.88
2018-03-29T08:43:56.754Z,106.88
2018-03-29T08:44:56.639Z,146.25
2018-03-29T08:45:56.698Z,157.50
2018-03-29T08:46:56.590Z,157.50
2018-03-29T08:47:56.572Z,174.38
2018-03-29T08:48:56.588Z,157.50
2018-03-29T08:49:56.572Z,196.88
2018-03-29T08:50:56.547Z,196.88
2018-03-29T08:51:57.396Z,213.75
2018-03-29T08:52:56.505Z,219.38
2018-03-29T08:53:56.508Z,219.38
2018-03-29T08:54:56.484Z,236.25
2018-03-29T08:55:56.522Z,236.25
2018-03-29T08:56:56.415Z,241.88
2018-03-29T08:57:56.592Z,230.63
2018-03-29T08:58:57.238Z,230.63
2018-03-29T08:59:56.606Z,258.75
2018-03-29T09:00:56.354Z,270.00
2018-03-29T09:01:56.338Z,241.88
2018-03-29T09:02:56.414Z,247.50
2018-03-29T09:03:56.352Z,225.00
2018-03-29T09:04:56.299Z,168.75
2018-03-29T09:05:57.180Z,140.63
2018-03-29T09:06:56.272Z,140.63
2018-03-29T09:07:56.259Z,180.00
2018-03-29T09:08:56.272Z,258.75
2018-03-29T09:09:57.659Z,247.50
2018-03-29T09:10:57.349Z,241.88
2018-03-29T09:11:56.191Z,320.63
2018-03-29T09:12:56.450Z,337.50
2018-03-29T09:13:57.134Z,360.00
2018-03-29T09:14:57.667Z,382.50
2018-03-29T09:15:56.254Z,399.38
2018-03-29T09:16:56.101Z,393.75
2018-03-29T09:17:56.073Z,360.00
2018-03-29T09:18:56.110Z,382.50
2018-03-29T09:19:56.327Z,433.13
2018-03-29T09:20:56.084Z,421.88
2018-03-29T09:21:56.029Z,309.38
2018-03-29T09:22:56.079Z,326.25
2018-03-29T09:23:55.990Z,225.00
2018-03-29T09:24:55.969Z,168.75
2018-03-29T09:25:55.974Z,196.88
2018-03-29T09:26:55.953Z,202.50
2018-03-29T09:27:55.981Z,185.63
2018-03-29T09:28:55.940Z,213.75
2018-03-29T09:29:55.899Z,174.38
2018-03-29T09:30:55.909Z,180.00
2018-03-29T09:31:55.967Z,230.63
2018-03-29T09:32:55.938Z,286.88
2018-03-29T09:33:55.842Z,354.38
2018-03-29T09:34:55.818Z,309.38
2018-03-29T09:35:56.346Z,315.00
2018-03-29T09:36:56.140Z,281.25
2018-03-29T09:37:55.795Z,264.38
2018-03-29T09:38:55.751Z,202.50
2018-03-29T09:39:55.758Z,230.63
2018-03-29T09:40:55.809Z,213.75
2018-03-29T09:41:55.772Z,208.13
2018-03-29T09:42:56.637Z,236.25
2018-03-29T09:43:55.693Z,258.75
2018-03-29T09:44:55.696Z,264.38
2018-03-29T09:45:55.763Z,286.88
2018-03-29T09:46:55.638Z,343.13
2018-03-29T09:47:56.092Z,348.75
2018-03-29T09:48:55.617Z,399.38
2018-03-29T09:49:55.617Z,343.13
2018-03-29T09:50:55.582Z,326.25
2018-03-29T09:51:55.581Z,298.13
2018-03-29T09:52:55.672Z,303.75
2018-03-29T09:53:55.516Z,371.25
2018-03-29T09:54:57.135Z,343.13
2018-03-29T09:55:55.514Z,360.00
2018-03-29T09:56:55.504Z,326.25
2018-03-29T09:57:55.528Z,388.13
2018-03-29T09:58:55.446Z,343.13
2018-03-29T09:59:55.452Z,365.63
2018-03-29T10:00:55.444Z,354.38
2018-03-29T10:01:55.411Z,343.13
2018-03-29T10:02:55.393Z,309.38
2018-03-29T10:03:55.398Z,292.50
2018-03-29T10:04:55.359Z,281.25
2018-03-29T10:05:55.352Z,298.13
2018-03-29T10:06:55.398Z,348.75
2018-03-29T10:07:55.386Z,388.13
2018-03-29T10:08:55.400Z,399.38
2018-03-29T10:09:55.274Z,348.75
2018-03-29T10:10:55.261Z,320.63
2018-03-29T10:11:55.242Z,303.75
2018-03-29T10:12:55.281Z,241.88
2018-03-29T10:13:55.244Z,230.63
2018-03-29T10:14:55.236Z,258.75
2018-03-29T10:15:55.190Z,343.13
2018-03-29T10:16:55.194Z,320.63
2018-03-29T10:17:55.154Z,399.38
2018-03-29T10:18:55.151Z,478.13
2018-03-29T10:19:55.187Z,489.38
2018-03-29T10:20:55.149Z,478.13
2018-03-29T10:21:55.521Z,472.50
2018-03-29T10:22:55.090Z,523.13
2018-03-29T10:23:55.081Z,495.00
2018-03-29T10:24:55.047Z,534.38
2018-03-29T10:25:55.089Z,500.63
2018-03-29T10:26:55.023Z,483.75
2018-03-29T10:27:55.025Z,388.13
2018-03-29T10:28:55.055Z,309.38
2018-03-29T10:29:54.994Z,365.63
2018-03-29T10:30:54.994Z,461.25
2018-03-29T10:31:54.984Z,416.25
2018-03-29T10:32:54.967Z,348.75
2018-03-29T10:33:54.922Z,348.75
2018-03-29T10:34:54.913Z,309.38
2018-03-29T10:35:54.922Z,455.63
2018-03-29T10:36:54.909Z,573.75
2018-03-29T10:37:54.857Z,461.25
2018-03-29T10:38:54.862Z,466.88
2018-03-29T10:39:54.835Z,495.00
2018-03-29T10:40:54.833Z,466.88
2018-03-29T10:41:54.839Z,528.75
2018-03-29T10:42:54.785Z,495.00
2018-03-29T10:43:54.801Z,405.00
2018-03-29T10:44:54.803Z,360.00
2018-03-29T10:45:54.786Z,455.63
2018-03-29T10:46:54.803Z,573.75
2018-03-29T10:47:54.736Z,495.00
2018-03-29T10:48:54.705Z,421.88
2018-03-29T10:49:54.714Z,337.50
2018-03-29T10:50:54.701Z,253.13
2018-03-29T10:51:54.690Z,303.75
2018-03-29T10:52:55.043Z,382.50
2018-03-29T10:53:54.650Z,444.38
2018-03-29T10:54:54.660Z,472.50
2018-03-29T10:55:54.624Z,506.25
2018-03-29T10:56:54.624Z,511.88
2018-03-29T10:57:54.588Z,495.00
2018-03-29T10:58:54.620Z,433.13
2018-03-29T10:59:54.571Z,393.75
2018-03-29T11:00:54.553Z,427.50
2018-03-29T11:01:54.722Z,427.50
2018-03-29T11:02:54.550Z,393.75
2018-03-29T11:03:54.508Z,416.25
2018-03-29T11:04:54.530Z,472.50
2018-03-29T11:05:54.485Z,1203.75
2018-03-29T11:06:54.491Z,1473.75
2018-03-29T11:07:54.472Z,1586.25
2018-03-29T11:08:54.446Z,894.38
2018-03-29T11:09:54.475Z,1316.25
2018-03-29T11:10:54.422Z,720.00
2018-03-29T11:11:54.456Z,528.75
2018-03-29T11:12:54.386Z,399.38
2018-03-29T11:13:54.380Z,399.38
2018-03-29T11:14:54.398Z,382.50
2018-03-29T11:15:54.397Z,393.75
2018-03-29T11:16:54.334Z,371.25
2018-03-29T11:17:54.335Z,354.38
2018-03-29T11:18:54.329Z,343.13
2018-03-29T11:19:54.357Z,348.75
2018-03-29T11:20:54.300Z,360.00
2018-03-29T11:21:54.287Z,393.75
2018-03-29T11:22:54.260Z,382.50
2018-03-29T11:23:54.248Z,405.00
2018-03-29T11:24:54.246Z,427.50
2018-03-29T11:25:54.292Z,393.75
2018-03-29T11:26:54.243Z,405.00
2018-03-29T11:27:54.192Z,410.63
2018-03-29T11:28:54.257Z,416.25
2018-03-29T11:29:54.182Z,421.88
2018-03-29T11:30:54.167Z,416.25
2018-03-29T11:31:54.179Z,399.38
2018-03-29T11:32:54.128Z,360.00
2018-03-29T11:33:54.114Z,326.25
2018-03-29T11:34:54.129Z,326.25
2018-03-29T11:35:54.103Z,337.50
2018-03-29T11:36:55.376Z,326.25
2018-03-29T11:37:54.063Z,326.25
2018-03-29T11:38:54.711Z,315.00
2018-03-29T11:39:54.031Z,320.63
2018-03-29T11:40:54.727Z,270.00
2018-03-29T11:41:54.089Z,309.38
2018-03-29T11:42:54.049Z,337.50
2018-03-29T11:43:54.280Z,326.25
2018-03-29T11:44:54.229Z,337.50
2018-03-29T11:45:54.035Z,326.25
2018-03-29T11:46:53.962Z,326.25
2018-03-29T11:47:54.131Z,270.00
2018-03-29T11:48:53.926Z,286.88
2018-03-29T11:49:53.901Z,354.38
2018-03-29T11:50:54.106Z,438.75
2018-03-29T11:51:57.225Z,382.50
2018-03-29T11:52:53.916Z,343.13
2018-03-29T11:53:54.221Z,315.00
2018-03-29T11:54:53.885Z,320.63
2018-03-29T11:55:53.826Z,393.75
2018-03-29T11:56:53.819Z,613.13
2018-03-29T11:57:54.028Z,1164.38
2018-03-29T11:58:53.946Z,315.00
2018-03-29T11:59:53.891Z,253.13
2018-03-29T12:00:53.804Z,230.63
2018-03-29T12:01:53.738Z,247.50
2018-03-29T12:02:53.735Z,315.00
2018-03-29T12:03:53.751Z,495.00
2018-03-29T12:04:54.832Z,742.50
2018-03-29T12:05:53.698Z,438.75
2018-03-29T12:06:53.662Z,343.13
2018-03-29T12:07:53.658Z,405.00
2018-03-29T12:08:53.648Z,421.88
2018-03-29T12:09:53.674Z,348.75
2018-03-29T12:10:53.629Z,286.88
2018-03-29T12:11:53.645Z,275.63
2018-03-29T12:12:56.604Z,225.00
2018-03-29T12:13:53.624Z,225.00
2018-03-29T12:14:53.562Z,270.00
2018-03-29T12:15:53.557Z,298.13
2018-03-29T12:16:53.534Z,365.63
2018-03-29T12:17:53.571Z,444.38
2018-03-29T12:18:53.504Z,483.75
2018-03-29T12:19:53.504Z,641.25
2018-03-29T12:20:59.359Z,652.50
2018-03-29T12:21:53.508Z,680.63
2018-03-29T12:22:53.651Z,630.00
2018-03-29T12:23:53.448Z,483.75
2018-03-29T12:24:53.429Z,495.00
2018-03-29T12:25:55.243Z,376.88
2018-03-29T12:26:53.742Z,371.25
2018-03-29T12:27:53.383Z,382.50
2018-03-29T12:28:54.056Z,382.50
2018-03-29T12:29:53.428Z,365.63
2018-03-29T12:30:53.337Z,365.63
2018-03-29T12:31:53.346Z,315.00
2018-03-29T12:32:53.357Z,281.25
2018-03-29T12:33:53.317Z,258.75
2018-03-29T12:34:53.290Z,208.13
2018-03-29T12:35:53.363Z,191.25
2018-03-29T12:36:53.264Z,202.50
2018-03-29T12:37:53.261Z,202.50
2018-03-29T12:38:53.406Z,225.00
2018-03-29T12:39:53.222Z,247.50
2018-03-29T12:40:53.262Z,202.50
2018-03-29T12:41:53.422Z,157.50
2018-03-29T12:42:53.194Z,106.88
2018-03-29T12:43:53.586Z,73.13
2018-03-29T12:44:53.878Z,56.25
2018-03-29T12:45:54.296Z,61.88
2018-03-29T12:46:53.396Z,90.00
2018-03-29T12:47:57.697Z,146.25
2018-03-29T12:48:53.183Z,264.38
2018-03-29T12:49:53.852Z,416.25
2018-03-29T12:50:54.400Z,466.88
2018-03-29T12:51:53.097Z,483.75